createdAt,value
2023-01-27T00:00:19.176Z,42.40
2023-01-27T00:02:47.601Z,41.10
2023-01-27T00:05:16.456Z,41.40
2023-01-27T00:07:48.210Z,45.70
2023-01-27T00:10:20.085Z,39.60
2023-01-27T00:13:07.191Z,38.50
2023-01-27T00:15:35.916Z,40.60
2023-01-27T00:18:05.176Z,43.70
2023-01-27T00:20:52.609Z,41.90
2023-01-27T00:23:41.978Z,38.20
2023-01-27T00:26:14.813Z,39.50
2023-01-27T00:28:44.757Z,37.40
2023-01-27T00:31:32.701Z,39.00
2023-01-27T00:34:02.263Z,43.50
2023-01-27T00:36:30.916Z,35.90
2023-01-27T00:38:59.791Z,40.60
2023-01-27T00:41:29.012Z,39.90
2023-01-27T00:43:57.283Z,37.60
2023-01-27T00:46:25.691Z,37.40
2023-01-27T00:48:54.047Z,37.70
2023-01-27T00:51:22.737Z,37.80
2023-01-27T00:53:51.215Z,37.40
2023-01-27T00:56:22.787Z,40.10
2023-01-27T00:58:51.054Z,39.90
2023-01-27T01:01:19.939Z,41.00
2023-01-27T01:03:48.489Z,39.70
2023-01-27T01:06:17.422Z,43.20
2023-01-27T01:08:46.005Z,40.30
2023-01-27T01:11:15.477Z,38.50
2023-01-27T01:13:44.179Z,42.70
2023-01-27T01:16:18.157Z,40.10
2023-01-27T01:18:46.704Z,36.80
2023-01-27T01:21:15.085Z,40.10
2023-01-27T01:23:46.127Z,37.70
2023-01-27T01:26:16.294Z,37.50
2023-01-27T01:28:45.167Z,38.60
2023-01-27T01:31:17.056Z,38.60
2023-01-27T01:33:46.701Z,40.80
2023-01-27T01:36:21.611Z,39.90
2023-01-27T01:38:49.716Z,47.40
2023-01-27T01:41:19.946Z,35.20
2023-01-27T01:43:48.774Z,38.80
2023-01-27T01:46:17.725Z,45.10
2023-01-27T01:48:52.637Z,41.00
2023-01-27T01:51:22.072Z,43.40
2023-01-27T01:54:03.753Z,40.00
2023-01-27T01:56:35.619Z,40.80
2023-01-27T01:59:09.839Z,44.40
2023-01-27T02:01:40.155Z,38.00
2023-01-27T02:04:11.921Z,40.30
2023-01-27T02:07:18.908Z,43.70
2023-01-27T02:09:49.131Z,46.50
2023-01-27T02:12:17.714Z,54.80
2023-01-27T02:14:46.114Z,46.10
2023-01-27T02:17:15.609Z,53.80
2023-01-27T02:20:06.756Z,50.50
2023-01-27T02:22:41.754Z,50.50
2023-01-27T02:25:33.375Z,58.30
2023-01-27T05:07:09.329Z,76.50
2023-01-27T05:09:37.587Z,78.80
2023-01-27T05:12:06.330Z,76.60
2023-01-27T05:14:34.622Z,72.10
2023-01-27T05:17:03.118Z,83.20
2023-01-27T05:19:31.884Z,77.90
2023-01-27T05:22:00.552Z,75.20
2023-01-27T05:24:28.941Z,73.90
2023-01-27T05:27:00.130Z,70.00
2023-01-27T05:29:28.480Z,74.90
2023-01-27T05:31:56.784Z,69.10
2023-01-27T05:34:25.131Z,68.70
2023-01-27T05:36:53.411Z,71.20
2023-01-27T05:39:21.687Z,71.70
2023-01-27T05:41:50.601Z,70.80
2023-01-27T05:44:18.758Z,75.40
2023-01-27T05:46:47.321Z,85.00
2023-01-27T05:49:15.576Z,87.70
2023-01-27T05:51:44.529Z,91.80
2023-01-27T05:54:13.213Z,101.50
2023-01-27T05:56:42.173Z,89.20
2023-01-27T05:59:12.335Z,98.30
2023-01-27T06:01:40.719Z,99.80
2023-01-27T06:04:10.196Z,119.00
2023-01-27T06:06:39.644Z,91.70
2023-01-27T06:09:07.890Z,92.40
2023-01-27T06:11:36.484Z,82.00
2023-01-27T06:14:05.072Z,77.50
2023-01-27T06:16:35.074Z,76.70
2023-01-27T06:19:03.666Z,78.30
2023-01-27T06:21:31.955Z,79.80
2023-01-27T06:24:00.130Z,72.90
2023-01-27T06:26:29.415Z,82.10
2023-01-27T06:28:58.766Z,82.30
2023-01-27T06:31:28.546Z,75.80
2023-01-27T06:33:56.849Z,82.30
2023-01-27T06:36:25.292Z,76.30
2023-01-27T06:38:53.576Z,83.60
2023-01-27T06:41:22.180Z,77.00
2023-01-27T06:43:52.994Z,65.20
2023-01-27T06:46:21.628Z,71.00
2023-01-27T06:48:51.091Z,77.00
2023-01-27T06:51:19.778Z,78.50
2023-01-27T06:53:48.173Z,86.10
2023-01-27T06:56:17.512Z,89.90
2023-01-27T06:58:46.358Z,83.00
2023-01-27T07:01:14.716Z,87.30
2023-01-27T07:03:45.011Z,103.10
2023-01-27T07:06:15.297Z,87.60
2023-01-27T07:08:47.679Z,100.20
2023-01-27T07:11:16.046Z,95.60
2023-01-27T07:13:44.418Z,103.70
2023-01-27T07:16:12.954Z,97.10
2023-01-27T07:18:41.715Z,94.60
2023-01-27T07:21:10.479Z,90.10
2023-01-27T07:23:38.867Z,92.50
2023-01-27T07:26:19.252Z,87.80
2023-01-27T07:28:53.337Z,95.30
2023-01-27T07:31:21.766Z,88.10
2023-01-27T07:33:53.142Z,91.30
2023-01-27T07:36:21.347Z,92.40
2023-01-27T07:38:50.861Z,86.40
2023-01-27T07:41:19.771Z,87.40
2023-01-27T07:43:48.004Z,86.60
2023-01-27T07:46:20.093Z,84.00
2023-01-27T07:48:48.775Z,94.60
2023-01-27T07:51:18.401Z,87.60
2023-01-27T07:53:46.906Z,81.40
2023-01-27T07:56:15.147Z,83.60
2023-01-27T07:58:46.729Z,83.90
2023-01-27T08:01:15.369Z,84.00
2023-01-27T08:03:44.001Z,82.30
2023-01-27T08:06:12.575Z,84.70
2023-01-27T08:08:41.144Z,83.40
2023-01-27T08:11:11.879Z,81.10
2023-01-27T08:13:40.838Z,83.60
2023-01-27T08:16:13.023Z,83.10
2023-01-27T08:18:42.205Z,71.50
2023-01-27T08:21:11.650Z,73.30
2023-01-27T08:23:40.251Z,76.60
2023-01-27T08:26:09.131Z,82.20
2023-01-27T08:28:38.245Z,80.00
2023-01-27T08:31:14.548Z,79.30
2023-01-27T08:33:44.408Z,82.60
2023-01-27T08:36:16.425Z,87.40
2023-01-27T08:38:50.192Z,82.70
2023-01-27T08:41:24.195Z,79.20
2023-01-27T08:43:52.467Z,85.40
2023-01-27T08:46:20.747Z,92.70
2023-01-27T08:48:50.569Z,102.40
2023-01-27T08:51:19.389Z,80.50
2023-01-27T08:53:51.348Z,81.50
2023-01-27T08:56:21.649Z,80.20
2023-01-27T08:58:52.369Z,88.30
2023-01-27T09:01:21.022Z,83.40
2023-01-27T09:03:49.562Z,76.20
2023-01-27T09:06:19.468Z,92.00
2023-01-27T09:09:10.045Z,83.10
2023-01-27T09:11:41.236Z,91.50
2023-01-27T09:14:09.626Z,82.70
2023-01-27T09:16:38.175Z,82.50
2023-01-27T09:19:06.562Z,90.60
2023-01-27T09:21:34.986Z,92.10
2023-01-27T09:24:03.351Z,95.20
2023-01-27T09:26:35.888Z,76.80
2023-01-27T09:29:04.197Z,94.90
2023-01-27T09:31:33.423Z,75.70
2023-01-27T09:34:01.789Z,78.10
2023-01-27T09:36:36.674Z,90.70
2023-01-27T09:39:07.324Z,80.70
2023-01-27T09:41:47.892Z,89.50
2023-01-27T09:44:36.992Z,78.90
2023-01-27T09:47:12.142Z,86.20
2023-01-27T09:49:55.735Z,78.50
2023-01-27T09:52:47.204Z,83.80
2023-01-27T09:55:28.642Z,78.50
2023-01-27T09:58:10.142Z,84.80
2023-01-27T10:01:10.880Z,82.90
2023-01-27T10:03:49.352Z,84.60
2023-01-27T10:06:42.324Z,84.60
2023-01-27T10:09:36.448Z,85.60
2023-01-27T10:12:13.521Z,86.80
2023-01-27T13:22:40.295Z,89.50
2023-01-27T13:25:09.372Z,102.10
2023-01-27T13:27:40.567Z,97.90
2023-01-27T13:30:27.724Z,91.00
2023-01-27T13:32:58.039Z,93.90
2023-01-27T13:35:37.784Z,94.00
2023-01-27T13:38:28.692Z,185.50
2023-01-27T13:40:57.080Z,86.70
2023-01-27T13:43:34.471Z,94.30
2023-01-27T13:46:25.891Z,129.70
2023-01-27T13:48:55.292Z,89.70
2023-01-27T13:51:29.055Z,382.50
2023-01-27T13:54:01.595Z,249.60
2023-01-27T13:56:57.293Z,102.50
2023-01-27T13:59:46.557Z,90.40
2023-01-27T14:02:33.480Z,101.50
2023-01-27T14:05:27.360Z,72.00
2023-01-27T14:08:14.580Z,137.10
2023-01-27T14:11:18.292Z,76.60
2023-01-27T14:14:15.177Z,73.60
2023-01-27T14:17:13.084Z,72.80
2023-01-27T14:19:51.734Z,67.90
2023-01-27T14:22:22.883Z,73.30
2023-01-27T14:25:30.181Z,63.70
2023-01-27T14:28:08.454Z,86.80
2023-01-27T14:30:43.549Z,84.30
2023-01-27T14:33:20.819Z,83.70
2023-01-27T14:35:56.561Z,67.30
2023-01-27T14:38:33.052Z,78.00
2023-01-27T14:41:10.606Z,62.90
2023-01-27T14:44:11.783Z,60.70
2023-01-27T14:46:56.582Z,56.80
2023-01-27T14:49:50.936Z,60.00
2023-01-27T14:52:31.228Z,65.20
2023-01-27T14:55:31.948Z,75.40
2023-01-27T14:58:20.078Z,58.80
2023-01-27T15:00:54.736Z,69.50
2023-01-27T15:03:41.947Z,61.70
2023-01-27T15:06:32.122Z,57.30
2023-01-27T15:09:13.096Z,65.10
2023-01-27T15:12:09.556Z,69.90
2023-01-27T15:15:03.552Z,61.20
2023-01-27T15:17:40.503Z,58.90
2023-01-27T15:20:15.609Z,77.00
2023-01-27T15:23:07.017Z,66.70
2023-01-27T15:25:40.411Z,74.00
2023-01-27T15:28:15.824Z,73.50
2023-01-27T15:31:09.786Z,77.80
2023-01-27T15:33:55.785Z,85.90
2023-01-27T15:36:32.030Z,79.90
2023-01-27T15:39:09.462Z,86.90
2023-01-27T15:41:53.173Z,81.70
2023-01-27T15:44:24.637Z,79.50
2023-01-27T15:47:12.358Z,81.80
2023-01-27T15:49:46.816Z,81.30
2023-01-27T15:52:30.713Z,90.20
2023-01-27T15:55:03.722Z,87.90
2023-01-27T15:57:35.479Z,83.20
2023-01-27T16:00:22.775Z,76.20
2023-01-27T16:02:54.667Z,80.80
2023-01-27T16:05:27.852Z,70.10
2023-01-27T16:08:01.154Z,62.40
2023-01-27T16:10:32.016Z,59.30
2023-01-27T16:13:21.364Z,65.50
2023-01-27T16:16:19.598Z,65.70
2023-01-27T16:19:01.090Z,55.90
2023-01-27T16:21:58.081Z,59.60
2023-01-27T16:24:32.033Z,52.80
2023-01-27T16:27:07.355Z,48.30
2023-01-27T16:29:58.069Z,52.10
2023-01-27T16:32:36.766Z,54.40
2023-01-27T16:35:07.098Z,54.30
2023-01-27T16:37:37.286Z,59.90
2023-01-27T16:40:11.840Z,57.90
2023-01-27T16:43:06.430Z,54.20
2023-01-27T16:46:01.755Z,50.20
2023-01-27T16:48:44.872Z,63.60
2023-01-27T16:51:20.791Z,49.30
2023-01-27T16:53:53.219Z,44.90
2023-01-27T16:56:24.500Z,48.30
2023-01-27T16:58:57.154Z,52.90
2023-01-27T17:01:28.935Z,47.80
2023-01-27T17:04:07.620Z,47.20
2023-01-27T17:06:39.345Z,55.50
2023-01-27T17:09:28.275Z,49.80
2023-01-27T17:11:57.247Z,48.80
2023-01-27T17:14:42.916Z,48.60
2023-01-27T17:17:18.036Z,48.40
2023-01-27T17:19:47.895Z,53.40
2023-01-27T17:22:26.801Z,47.70
2023-01-27T17:25:02.480Z,48.10
2023-01-27T17:27:36.008Z,51.80
2023-01-27T17:30:13.568Z,52.70
2023-01-27T17:32:47.025Z,47.30
2023-01-27T17:35:22.342Z,54.40
2023-01-27T17:37:50.670Z,48.70
2023-01-27T17:40:21.818Z,51.00
2023-01-27T17:42:50.299Z,50.00
2023-01-27T17:45:24.417Z,51.00
2023-01-27T17:47:52.692Z,50.70
2023-01-27T17:50:26.397Z,48.40
2023-01-27T17:52:54.575Z,59.60
2023-01-27T17:55:24.503Z,57.70
2023-01-27T17:58:12.225Z,55.20
2023-01-27T18:00:42.351Z,61.00
2023-01-27T18:05:53.670Z,56.60
2023-01-27T18:08:25.815Z,55.50
2023-01-27T18:11:04.333Z,59.50
2023-01-27T18:13:32.613Z,57.50
2023-01-27T18:16:13.923Z,52.20
2023-01-27T18:18:48.030Z,58.20
2023-01-27T18:21:23.765Z,58.00
2023-01-27T18:23:59.056Z,55.60
2023-01-27T18:26:39.774Z,60.70
2023-01-27T18:29:39.079Z,53.90
2023-01-27T18:32:13.813Z,59.60
2023-01-27T18:34:47.217Z,59.30
2023-01-27T18:37:26.274Z,58.20
2023-01-27T18:39:55.562Z,63.20
2023-01-27T18:42:24.634Z,61.90
2023-01-27T18:44:53.056Z,53.90
2023-01-27T18:47:32.160Z,56.40
2023-01-27T18:50:20.410Z,59.10
2023-01-27T18:52:48.906Z,57.20
2023-01-27T18:55:23.922Z,62.20
2023-01-27T18:57:57.009Z,61.10
2023-01-27T19:00:35.120Z,54.30
2023-01-27T19:03:04.091Z,54.20
2023-01-27T19:05:34.371Z,52.00
2023-01-27T19:08:06.571Z,59.10
2023-01-27T19:10:35.291Z,53.00
2023-01-27T19:13:04.302Z,59.60
2023-01-27T19:15:50.356Z,57.00
2023-01-27T19:18:27.241Z,55.40
2023-01-27T19:20:55.746Z,57.50
2023-01-27T19:23:29.850Z,57.50
2023-01-27T19:25:58.753Z,63.60
2023-01-27T19:28:32.154Z,55.40
2023-01-27T19:31:00.657Z,63.10
2023-01-27T19:33:29.745Z,58.70
2023-01-27T19:36:11.023Z,59.00
2023-01-27T19:38:39.441Z,58.60
2023-01-27T19:41:10.606Z,59.50
2023-01-27T19:43:39.085Z,58.40
2023-01-27T19:46:15.111Z,57.90
2023-01-27T19:48:43.904Z,54.20
2023-01-27T19:51:12.023Z,59.80
2023-01-27T19:53:46.695Z,59.30
2023-01-27T19:56:19.702Z,71.20
2023-01-27T19:58:52.914Z,74.00
2023-01-27T20:01:24.981Z,72.80
2023-01-27T20:03:53.890Z,69.00
2023-01-27T20:06:27.566Z,80.40
2023-01-27T20:08:57.421Z,83.80
2023-01-27T21:12:42.434Z,54.10
2023-01-27T21:15:11.369Z,60.10
2023-01-27T21:17:40.928Z,62.60
2023-01-27T21:20:10.762Z,65.70
2023-01-27T21:22:39.386Z,59.10
2023-01-27T21:25:09.291Z,60.90
2023-01-27T21:27:42.023Z,65.90
2023-01-27T21:30:11.803Z,65.00
2023-01-27T21:32:41.188Z,66.40
2023-01-27T21:35:11.691Z,50.00
2023-01-27T21:37:40.520Z,78.10
2023-01-27T21:40:09.741Z,70.00
2023-01-27T21:43:01.340Z,64.30
2023-01-27T21:45:29.717Z,53.30
2023-01-27T21:47:58.107Z,49.20
2023-01-27T21:50:28.855Z,48.70
2023-01-27T21:55:28.257Z,50.40
2023-01-27T21:57:56.553Z,55.40
2023-01-27T22:00:26.980Z,48.30
2023-01-27T22:02:59.716Z,49.10
2023-01-27T22:05:28.704Z,48.90
2023-01-27T22:07:57.527Z,47.70
2023-01-27T22:10:27.355Z,47.20
2023-01-27T22:13:04.746Z,54.00
2023-01-27T22:15:35.067Z,49.60
2023-01-27T22:18:07.440Z,49.10
2023-01-27T22:20:36.238Z,47.70
2023-01-27T22:23:04.566Z,53.70
2023-01-27T22:25:33.504Z,52.90
2023-01-27T22:28:02.206Z,48.20
2023-01-27T22:30:32.768Z,49.90
2023-01-27T22:33:04.086Z,54.30
2023-01-27T22:35:33.890Z,51.00
2023-01-27T22:38:02.707Z,52.50
2023-01-27T22:40:33.724Z,54.40
2023-01-27T22:43:09.326Z,61.80
2023-01-27T22:45:41.073Z,54.70
2023-01-27T22:48:10.141Z,54.30
2023-01-27T22:50:40.821Z,48.50
2023-01-27T22:53:11.199Z,55.30
2023-01-27T22:58:08.982Z,56.10
2023-01-27T23:00:37.254Z,51.20
2023-01-27T23:03:05.644Z,55.80
2023-01-27T23:05:34.842Z,49.20
2023-01-27T23:08:03.214Z,58.40
2023-01-27T23:10:31.596Z,49.50
2023-01-27T23:12:59.975Z,51.00
2023-01-27T23:15:32.040Z,50.90
2023-01-27T23:18:01.144Z,52.90
2023-01-27T23:20:29.443Z,52.40
2023-01-27T23:22:58.308Z,53.90
2023-01-27T23:25:26.701Z,48.30
2023-01-27T23:27:55.081Z,46.80
2023-01-27T23:30:23.662Z,50.70
2023-01-27T23:32:57.476Z,55.90
2023-01-27T23:35:26.053Z,47.70
2023-01-27T23:37:54.429Z,60.80
2023-01-27T23:40:22.815Z,56.00
2023-01-27T23:42:52.415Z,53.80
2023-01-27T23:45:20.899Z,55.50
2023-01-27T23:47:49.384Z,54.80
2023-01-27T23:50:18.053Z,52.30
2023-01-27T23:52:46.345Z,52.80
2023-01-27T23:55:15.279Z,49.20
2023-01-27T23:57:43.951Z,49.90
